Terminal Aerodrome Forecast
Issued by NWS

Current Version | Previous Version | Text Only | Print | Product List | Glossary On
Versions: 1 2 3 4 5 6 7 8 9 10 11 12 13
000
FTUS45 KVEF 162300
TAFBIH
TAF
KBIH 162320Z 1700/1724 32006KT P6SM FEW250
     FM171700 16009KT P6SM FEW250
     FM172100 18015G20KT P6SM FEW150 SCT200=

USA.gov is the U.S. government's official web portal to all federal, state and local government web resources and services.